Time;durP1;ratioP1;P1;durP2;ratioP2;P2;SDS_P1;SDS_P2;PMS_P1;PMS_P2;Temp;Humidity;BMP_temperature;BMP_pressure;BME280_temperature;BME280_humidity;BME280_pressure;Samples;Min_cycle;Max_cycle;Signal;HPM_P1;HPM_P2
2022/11/23 00:00:39;;;;;;;;;;;;;;;27.11;49.23;95604.34;609482;233;66974;-64
2022/11/23 00:03:06;;;;;;;;;;;;;;;27.11;50.72;95605.12;609495;233;65289;-64
2022/11/23 00:05:34;;;;;;;;;;;;;;;27.11;51.76;95602.42;609464;233;67179;-64
2022/11/23 00:08:01;;;;;;;;;;;;;;;27.10;52.03;95602.78;609480;233;66930;-64
2022/11/23 00:10:29;;;;;;;;;;;;;;;27.08;48.16;95621.98;609356;233;65092;-64
2022/11/23 00:12:56;;;;;;;;;;;;;;;27.08;50.44;95613.13;609295;233;67247;-64
2022/11/23 00:15:24;;;;;;;;;;;;;;;27.08;49.06;95605.81;609442;233;67387;-64
2022/11/23 00:17:51;;;;;;;;;;;;;;;27.08;52.95;95602.34;609491;233;64989;-64
2022/11/23 00:20:19;;;;;;;;;;;;;;;27.08;52.84;95611.20;609467;233;67228;-72
2022/11/23 00:22:46;;;;;;;;;;;;;;;27.04;50.05;95572.59;609474;233;67063;-72
2022/11/23 00:25:14;;;;;;;;;;;;;;;27.05;49.88;95598.41;609444;233;65036;-72
2022/11/23 00:27:41;;;;;;;;;;;;;;;27.05;50.94;95574.15;609445;233;67231;-72
2022/11/23 00:30:09;;;;;;;;;;;;;;;27.06;52.77;95601.89;609490;233;67471;-72
2022/11/23 00:32:37;;;;;;;;;;;;;;;27.05;51.50;95568.75;609093;233;65097;-73
2022/11/23 00:35:06;;;;;;;;;;;;;;;27.04;53.28;95609.53;608951;232;44980;-73
2022/11/23 00:37:34;;;;;;;;;;;;;;;27.02;50.90;95574.84;608872;233;67058;-72
2022/11/23 00:40:01;;;;;;;;;;;;;;;27.01;51.30;95586.77;608870;233;67311;-65
2022/11/23 00:42:29;;;;;;;;;;;;;;;27.00;51.76;95604.83;608947;233;67959;-64
2022/11/23 00:44:56;;;;;;;;;;;;;;;27.01;52.73;95605.64;608893;233;67027;-64
2022/11/23 00:47:24;;;;;;;;;;;;;;;27.00;50.71;95598.66;608882;233;65193;-64
2022/11/23 00:49:51;;;;;;;;;;;;;;;26.99;53.80;95572.84;608881;233;67074;-64
2022/11/23 00:52:19;;;;;;;;;;;;;;;26.97;51.65;95610.13;608805;233;66828;-72
2022/11/23 00:54:46;;;;;;;;;;;;;;;26.98;52.44;95590.13;608820;233;65006;-72
2022/11/23 00:57:14;;;;;;;;;;;;;;;26.98;52.69;95557.77;608962;233;65066;-73
2022/11/23 00:59:43;;;;;;;;;;;;;;;26.96;50.91;95506.13;608931;233;67518;-72
2022/11/23 01:02:10;;;;;;;;;;;;;;;26.96;52.11;95546.57;608679;233;65006;-72
2022/11/23 01:04:38;;;;;;;;;;;;;;;26.93;50.11;95531.87;608882;233;67005;-72
2022/11/23 01:07:06;;;;;;;;;;;;;;;26.92;51.47;95541.06;608906;233;66861;-72
2022/11/23 01:09:33;;;;;;;;;;;;;;;26.92;53.57;95503.33;608947;233;62943;-73
2022/11/23 01:12:01;;;;;;;;;;;;;;;26.92;51.11;95521.42;608940;233;64912;-72
2022/11/23 01:14:28;;;;;;;;;;;;;;;26.92;51.57;95510.64;608695;233;65635;-73
2022/11/23 01:16:56;;;;;;;;;;;;;;;26.90;51.89;95497.52;608906;233;65012;-73
2022/11/23 01:19:24;;;;;;;;;;;;;;;26.90;51.61;95464.36;608904;233;67041;-72
2022/11/23 01:21:51;;;;;;;;;;;;;;;26.90;51.49;95488.63;608986;233;66919;-72
2022/11/23 01:24:22;;;;;;;;;;;;;;;26.90;51.92;95494.02;608916;233;63766;-65
2022/11/23 01:26:52;;;;;;;;;;;;;;;26.89;52.01;95478.98;608941;233;64853;-65
2022/11/23 01:29:20;;;;;;;;;;;;;;;26.89;50.96;95470.89;608906;233;67657;-65
2022/11/23 01:31:48;;;;;;;;;;;;;;;26.87;49.41;95470.45;608880;233;64853;-65
2022/11/23 01:34:15;;;;;;;;;;;;;;;26.87;52.47;95492.02;608939;233;67269;-73
2022/11/23 01:36:43;;;;;;;;;;;;;;;26.86;52.68;95490.46;608943;233;66896;-73
2022/11/23 01:39:11;;;;;;;;;;;;;;;26.85;52.39;95484.30;608917;233;64990;-73
2022/11/23 01:41:40;;;;;;;;;;;;;;;26.83;50.69;95475.77;608933;233;66988;-73
2022/11/23 01:44:21;;;;;;;;;;;;;;;26.83;51.19;95510.80;608952;233;67170;-73
2022/11/23 01:46:50;;;;;;;;;;;;;;;26.81;52.46;95491.48;608897;232;42501;-72
2022/11/23 01:49:18;;;;;;;;;;;;;;;26.82;52.05;95520.03;608972;233;66983;-71
2022/11/23 01:51:47;;;;;;;;;;;;;;;26.82;50.68;95497.66;608941;233;67065;-63
2022/11/23 01:54:19;;;;;;;;;;;;;;;26.79;52.92;95491.84;608904;233;65976;-63
2022/11/23 01:56:47;;;;;;;;;;;;;;;26.79;52.66;95532.27;608920;233;67556;-63
2022/11/23 01:59:16;;;;;;;;;;;;;;;26.77;50.35;95521.05;608838;232;64722;-64
2022/11/23 02:01:44;;;;;;;;;;;;;;;26.78;49.85;95538.77;608926;233;62977;-64
2022/11/23 02:04:13;;;;;;;;;;;;;;;26.77;54.24;95526.44;608951;233;67548;-64
2022/11/23 02:06:43;;;;;;;;;;;;;;;26.78;52.70;95509.13;608913;232;45765;-64
2022/11/23 02:09:11;;;;;;;;;;;;;;;26.75;50.41;95528.69;608930;233;65072;-64
2022/11/23 02:11:38;;;;;;;;;;;;;;;26.75;51.34;95525.99;608951;233;67048;-64
2022/11/23 02:14:06;;;;;;;;;;;;;;;26.74;49.50;95521.73;608960;233;66657;-64
2022/11/23 02:16:33;;;;;;;;;;;;;;;26.74;52.41;95518.27;608985;233;65035;-64
2022/11/23 02:19:00;;;;;;;;;;;;;;;26.72;52.04;95518.59;608925;233;66834;-64
2022/11/23 02:21:28;;;;;;;;;;;;;;;26.72;51.71;95537.46;608960;233;66745;-64
2022/11/23 02:24:00;;;;;;;;;;;;;;;26.71;51.13;95522.44;608929;233;64979;-64
2022/11/23 02:26:29;;;;;;;;;;;;;;;26.71;50.13;95525.13;608866;232;66603;-64
2022/11/23 02:29:01;;;;;;;;;;;;;;;26.71;53.55;95518.93;608978;233;66763;-64
2022/11/23 02:31:30;;;;;;;;;;;;;;;26.69;52.50;95529.29;608974;233;65220;-64
2022/11/23 02:33:58;;;;;;;;;;;;;;;26.69;51.14;95521.20;608892;233;66909;-64
2022/11/23 02:36:29;;;;;;;;;;;;;;;26.67;53.90;95536.92;608934;233;67426;-64
2022/11/23 02:38:59;;;;;;;;;;;;;;;26.65;52.43;95520.31;608940;233;66091;-64
2022/11/23 02:41:27;;;;;;;;;;;;;;;26.67;53.05;95521.54;608826;233;65137;-64
2022/11/23 02:43:56;;;;;;;;;;;;;;;26.64;50.72;95516.84;608798;233;65753;-64
2022/11/23 02:46:24;;;;;;;;;;;;;;;26.65;52.11;95514.92;604549;233;66683;-63
2022/11/23 02:48:52;;;;;;;;;;;;;;;26.66;52.19;95497.64;608903;233;67060;-65
2022/11/23 02:51:19;;;;;;;;;;;;;;;26.64;51.38;95532.23;608926;233;66921;-63
2022/11/23 02:53:47;;;;;;;;;;;;;;;26.62;51.61;95529.86;608908;233;64879;-71
2022/11/23 02:56:15;;;;;;;;;;;;;;;26.61;51.10;95522.14;608980;233;64503;-71
2022/11/23 02:58:43;;;;;;;;;;;;;;;26.61;51.95;95541.78;608929;233;64807;-71
2022/11/23 03:01:10;;;;;;;;;;;;;;;26.59;51.75;95527.08;608935;233;65270;-71
2022/11/23 03:03:38;;;;;;;;;;;;;;;26.58;51.75;95537.08;608917;233;66851;-71
2022/11/23 03:06:06;;;;;;;;;;;;;;;26.58;51.69;95518.22;608901;233;66822;-71
2022/11/23 03:08:33;;;;;;;;;;;;;;;26.56;52.26;95513.16;608870;233;65077;-72
2022/11/23 03:11:01;;;;;;;;;;;;;;;26.56;53.39;95534.72;608965;233;65283;-71
2022/11/23 03:13:29;;;;;;;;;;;;;;;26.55;52.58;95525.08;608928;233;65813;-71
2022/11/23 03:15:58;;;;;;;;;;;;;;;26.54;53.92;95509.24;608941;233;43250;-64
2022/11/23 03:18:26;;;;;;;;;;;;;;;26.55;54.48;95527.77;608912;233;64614;-64
2022/11/23 03:20:54;;;;;;;;;;;;;;;26.53;50.55;95537.31;608902;233;67464;-64
2022/11/23 03:23:22;;;;;;;;;;;;;;;26.54;52.74;95520.02;608698;233;65910;-64
2022/11/23 03:25:56;;;;;;;;;;;;;;;26.51;53.17;95509.93;608814;233;67920;-64
2022/11/23 03:28:24;;;;;;;;;;;;;;;26.52;52.33;95520.37;608878;233;67083;-64
2022/11/23 03:30:52;;;;;;;;;;;;;;;26.50;50.99;95501.04;608881;233;65011;-65
2022/11/23 03:33:21;;;;;;;;;;;;;;;26.50;53.61;95508.34;608149;233;67333;-64
2022/11/23 03:35:49;;;;;;;;;;;;;;;26.50;53.90;95511.04;608295;233;66888;-64
2022/11/23 03:38:21;;;;;;;;;;;;;;;26.50;51.68;95513.73;608801;232;42203;-64
2022/11/23 03:40:49;;;;;;;;;;;;;;;26.48;53.01;95516.76;607699;233;64860;-64
2022/11/23 03:43:27;;;;;;;;;;;;;;;26.47;53.53;95515.20;608500;232;44306;-73
2022/11/23 03:45:55;;;;;;;;;;;;;;;26.46;51.77;95531.69;608906;233;65200;-72
2022/11/23 03:48:22;;;;;;;;;;;;;;;26.45;51.91;95517.44;608906;233;64832;-72
2022/11/23 03:50:50;;;;;;;;;;;;;;;26.44;53.81;95520.50;608986;233;67373;-72
2022/11/23 03:53:18;;;;;;;;;;;;;;;26.43;51.56;95518.91;608899;233;65091;-72
2022/11/23 03:55:46;;;;;;;;;;;;;;;26.42;52.32;95510.05;608873;233;64571;-72
2022/11/23 03:58:14;;;;;;;;;;;;;;;26.42;54.16;95509.27;608887;233;67713;-72
2022/11/23 04:00:42;;;;;;;;;;;;;;;26.43;52.32;95502.75;608887;233;64957;-72
2022/11/23 04:03:10;;;;;;;;;;;;;;;26.40;52.52;95500.74;608955;233;64873;-72
2022/11/23 04:05:48;;;;;;;;;;;;;;;26.38;51.76;95495.69;608522;232;45677;-73
2022/11/23 04:08:24;;;;;;;;;;;;;;;26.39;52.35;95494.58;608981;233;45230;-72
2022/11/23 04:10:54;;;;;;;;;;;;;;;26.39;52.91;95510.73;608874;233;67755;-72
2022/11/23 04:13:23;;;;;;;;;;;;;;;26.37;52.64;95501.43;608840;232;45800;-73
2022/11/23 04:15:51;;;;;;;;;;;;;;;26.37;53.04;95504.91;608924;233;65035;-72
2022/11/23 04:18:18;;;;;;;;;;;;;;;26.36;52.98;95506.04;608945;233;64680;-72
2022/11/23 04:20:46;;;;;;;;;;;;;;;26.36;53.45;95503.34;608899;233;65705;-72
2022/11/23 04:23:13;;;;;;;;;;;;;;;26.34;53.17;95502.89;608877;233;65151;-72
2022/11/23 04:25:41;;;;;;;;;;;;;;;26.33;53.77;95496.73;608880;233;67370;-64
2022/11/23 04:28:10;;;;;;;;;;;;;;;26.33;52.57;95537.13;608922;233;67299;-64
2022/11/23 04:30:38;;;;;;;;;;;;;;;26.32;51.96;95542.84;608941;233;65880;-64
2022/11/23 04:33:05;;;;;;;;;;;;;;;26.32;52.79;95538.23;609302;232;67263;-64
2022/11/23 04:35:33;;;;;;;;;;;;;;;26.31;51.44;95523.22;610088;232;67063;-64
2022/11/23 04:38:01;;;;;;;;;;;;;;;26.31;51.14;95530.52;610109;232;64983;-65
2022/11/23 04:40:30;;;;;;;;;;;;;;;26.31;54.64;95542.06;610149;232;67271;-72
2022/11/23 04:42:59;;;;;;;;;;;;;;;26.29;52.29;95552.39;610099;232;44351;-72
2022/11/23 04:45:28;;;;;;;;;;;;;;;26.29;54.31;95538.14;610197;232;42281;-72
2022/11/23 04:47:58;;;;;;;;;;;;;;;26.26;52.94;95534.22;610065;232;67887;-73
2022/11/23 04:50:27;;;;;;;;;;;;;;;26.27;53.40;95529.61;610110;232;67419;-72
2022/11/23 04:52:55;;;;;;;;;;;;;;;26.26;53.67;95525.36;610104;232;65736;-64
2022/11/23 04:55:24;;;;;;;;;;;;;;;26.23;52.48;95526.83;610075;232;44065;-64
2022/11/23 04:57:56;;;;;;;;;;;;;;;26.23;53.33;95537.59;610221;232;46668;-64
2022/11/23 05:00:26;;;;;;;;;;;;;;;26.23;54.84;95552.98;610161;232;45606;-72
2022/11/23 05:02:54;;;;;;;;;;;;;;;26.22;51.64;95554.08;610101;232;64601;-72
2022/11/23 05:05:24;;;;;;;;;;;;;;;26.22;53.90;95562.16;609951;232;46587;-72
2022/11/23 05:07:51;;;;;;;;;;;;;;;26.21;53.57;95556.00;610094;232;65766;-72
2022/11/23 05:10:20;;;;;;;;;;;;;;;26.20;52.79;95540.20;610165;232;67825;-72
2022/11/23 05:12:48;;;;;;;;;;;;;;;26.20;55.29;95530.20;610103;232;65295;-72
2022/11/23 05:15:16;;;;;;;;;;;;;;;26.20;52.88;95535.59;610116;232;65650;-72
2022/11/23 05:17:44;;;;;;;;;;;;;;;26.19;53.35;95528.64;610096;232;68091;-72
2022/11/23 05:20:13;;;;;;;;;;;;;;;26.18;51.05;95545.91;610019;232;43829;-73
2022/11/23 05:22:42;;;;;;;;;;;;;;;26.16;51.76;95531.99;610083;232;43490;-72
2022/11/23 05:25:11;;;;;;;;;;;;;;;26.16;53.89;95539.30;610163;232;65607;-72
2022/11/23 05:27:40;;;;;;;;;;;;;;;26.15;53.92;95556.58;610083;232;67074;-72
2022/11/23 05:30:08;;;;;;;;;;;;;;;26.15;51.68;95549.28;610116;232;62417;-72
2022/11/23 05:32:36;;;;;;;;;;;;;;;26.15;54.40;95551.98;609854;232;66842;-72
2022/11/23 05:35:05;;;;;;;;;;;;;;;26.13;54.49;95554.22;608934;230;65696;-73
2022/11/23 05:37:34;;;;;;;;;;;;;;;26.12;51.26;95542.67;608932;233;41561;-72
2022/11/23 05:40:03;;;;;;;;;;;;;;;26.12;52.91;95544.58;608884;233;67298;-72
2022/11/23 05:42:31;;;;;;;;;;;;;;;26.12;52.52;95549.97;608927;233;67153;-72
2022/11/23 05:45:00;;;;;;;;;;;;;;;26.13;51.47;95546.14;608855;232;42260;-72
2022/11/23 05:47:29;;;;;;;;;;;;;;;26.12;53.51;95550.74;608781;232;44344;-73
2022/11/23 05:49:57;;;;;;;;;;;;;;;26.13;53.34;95559.60;608897;233;67420;-72
2022/11/23 05:52:26;;;;;;;;;;;;;;;26.13;52.38;95556.91;608874;233;65786;-72
2022/11/23 05:54:54;;;;;;;;;;;;;;;26.12;52.22;95553.44;608924;233;64993;-72
2022/11/23 05:57:21;;;;;;;;;;;;;;;26.14;55.49;95553.11;608904;233;67525;-73
2022/11/23 05:59:49;;;;;;;;;;;;;;;26.14;52.51;95558.50;608980;233;64950;-72
2022/11/23 06:02:19;;;;;;;;;;;;;;;26.16;52.57;95560.83;608877;232;44395;-72
2022/11/23 06:04:48;;;;;;;;;;;;;;;26.15;53.34;95551.20;608892;233;67493;-73
2022/11/23 06:07:18;;;;;;;;;;;;;;;26.15;50.86;95557.36;608935;232;43827;-71
2022/11/23 06:10:06;;;;;;;;;;;;;;;26.17;53.16;95554.34;608644;232;49393;-72
2022/11/23 06:12:35;;;;;;;;;;;;;;;26.15;52.48;95551.20;608882;233;65077;-65
2022/11/23 06:15:03;;;;;;;;;;;;;;;26.15;52.41;95560.05;608966;233;65758;-72
2022/11/23 06:17:31;;;;;;;;;;;;;;;26.17;53.50;95573.19;608918;233;65125;-72
2022/11/23 06:20:03;;;;;;;;;;;;;;;26.19;52.77;95581.69;608958;232;44826;-72
2022/11/23 06:22:30;;;;;;;;;;;;;;;26.19;53.96;95574.42;608941;233;65661;-72
2022/11/23 06:25:02;;;;;;;;;;;;;;;26.19;51.98;95585.19;608953;233;45343;-72
2022/11/23 06:27:34;;;;;;;;;;;;;;;26.22;55.70;95575.63;609006;233;48456;-72
2022/11/23 06:30:04;;;;;;;;;;;;;;;26.21;53.33;95563.30;608984;233;42261;-72
2022/11/23 06:32:32;;;;;;;;;;;;;;;26.22;55.15;95552.20;608870;233;64687;-72
2022/11/23 06:35:00;;;;;;;;;;;;;;;26.22;55.23;95533.34;608963;233;66884;-71
2022/11/23 06:37:28;;;;;;;;;;;;;;;26.23;53.26;95534.91;608934;233;65785;-71
2022/11/23 06:39:56;;;;;;;;;;;;;;;26.25;52.90;95539.96;608936;233;64438;-71
2022/11/23 06:42:23;;;;;;;;;;;;;;;26.26;53.75;95536.91;608945;233;67049;-71
2022/11/23 06:44:52;;;;;;;;;;;;;;;26.27;55.01;95541.19;608809;233;63077;-71
2022/11/23 06:47:20;;;;;;;;;;;;;;;26.28;54.82;95525.81;608892;233;66744;-71
2022/11/23 06:49:49;;;;;;;;;;;;;;;26.28;56.88;95528.51;608911;233;67483;-70
2022/11/23 06:52:18;;;;;;;;;;;;;;;26.29;55.76;95533.53;608703;232;43445;-70
2022/11/23 06:54:47;;;;;;;;;;;;;;;26.31;53.76;95542.06;608919;233;67357;-70
2022/11/23 06:57:15;;;;;;;;;;;;;;;26.34;56.40;95545.98;608848;233;64918;-70
2022/11/23 06:59:44;;;;;;;;;;;;;;;26.35;54.36;95561.02;608857;233;65048;-70
2022/11/23 07:02:13;;;;;;;;;;;;;;;26.38;54.44;95562.24;608612;233;67634;-70
2022/11/23 07:04:41;;;;;;;;;;;;;;;26.40;55.56;95568.08;608643;233;66988;-72
2022/11/23 07:07:11;;;;;;;;;;;;;;;26.40;54.51;95566.16;608814;233;43612;-71
2022/11/23 07:09:40;;;;;;;;;;;;;;;26.41;55.78;95567.75;608770;232;43450;-72
2022/11/23 07:12:16;;;;;;;;;;;;;;;26.41;54.24;95583.91;608565;232;46863;-69
2022/11/23 07:14:43;;;;;;;;;;;;;;;26.42;55.14;95598.94;616331;230;65559;-70
2022/11/23 07:17:11;;;;;;;;;;;;;;;26.42;53.41;95601.63;616340;230;67195;-67
2022/11/23 07:19:38;;;;;;;;;;;;;;;26.45;53.42;95610.95;609492;233;66892;-70
2022/11/23 07:22:06;;;;;;;;;;;;;;;26.44;52.52;95609.38;615185;230;65722;-68
2022/11/23 07:24:34;;;;;;;;;;;;;;;26.46;54.12;95612.50;609389;233;67127;-69
2022/11/23 07:27:01;;;;;;;;;;;;;;;26.47;55.23;95620.26;609137;233;65178;-70
2022/11/23 07:29:30;;;;;;;;;;;;;;;26.48;54.11;95607.56;609471;233;63063;-72
2022/11/23 07:31:57;;;;;;;;;;;;;;;26.49;54.55;95609.13;616288;230;67778;-71
2022/11/23 07:34:27;;;;;;;;;;;;;;;26.50;55.71;95608.02;609474;233;65492;-70
2022/11/23 07:36:55;;;;;;;;;;;;;;;26.50;54.58;95613.41;609104;233;65548;-71
2022/11/23 07:39:23;;;;;;;;;;;;;;;26.50;53.66;95608.02;609414;233;64873;-67
2022/11/23 07:41:51;;;;;;;;;;;;;;;26.51;52.97;95604.22;616359;230;67325;-68
2022/11/23 07:44:26;;;;;;;;;;;;;;;26.53;54.65;95616.23;606974;233;45010;-61
2022/11/23 07:46:54;;;;;;;;;;;;;;;26.53;54.29;95618.92;609059;233;65903;-63
2022/11/23 07:49:21;;;;;;;;;;;;;;;26.55;55.66;95621.28;616458;230;66985;-63
2022/11/23 07:51:49;;;;;;;;;;;;;;;26.55;54.53;95622.06;609480;233;65068;-63
2022/11/23 07:54:16;;;;;;;;;;;;;;;26.56;53.03;95626.31;615117;230;65090;-63
2022/11/23 07:56:44;;;;;;;;;;;;;;;26.58;53.42;95619.82;609506;233;67044;-63
2022/11/23 07:59:11;;;;;;;;;;;;;;;26.60;51.49;95628.33;609128;233;65067;-63
2022/11/23 08:01:39;;;;;;;;;;;;;;;26.61;53.09;95622.61;609489;233;66905;-63
2022/11/23 08:04:06;;;;;;;;;;;;;;;26.61;53.74;95616.44;616307;230;67030;-68
2022/11/23 08:06:34;;;;;;;;;;;;;;;26.62;55.77;95618.78;609431;233;64883;-65
2022/11/23 08:09:01;;;;;;;;;;;;;;;26.62;53.39;95618.78;609124;233;67435;-65
2022/11/23 08:11:29;;;;;;;;;;;;;;;26.63;55.48;95612.28;609462;233;67153;-67
2022/11/23 08:13:56;;;;;;;;;;;;;;;26.64;53.65;95615.76;616330;230;65052;-66
2022/11/23 08:16:24;;;;;;;;;;;;;;;26.65;55.37;95609.23;609480;232;67223;-64
2022/11/23 08:18:51;;;;;;;;;;;;;;;26.65;55.51;95612.70;609103;233;67037;-67
2022/11/23 08:21:19;;;;;;;;;;;;;;;26.66;54.42;95611.59;609435;233;65178;-67
2022/11/23 08:23:46;;;;;;;;;;;;;;;26.67;55.59;95613.16;616410;230;67078;-67
2022/11/23 08:26:14;;;;;;;;;;;;;;;26.67;54.08;95613.16;609490;233;66993;-68
2022/11/23 08:28:41;;;;;;;;;;;;;;;26.69;54.78;95615.52;609094;233;65059;-66
2022/11/23 08:31:14;;;;;;;;;;;;;;;26.70;55.40;95617.08;609452;233;65094;-68
2022/11/23 08:33:39;;;;;;;;;;;;;;;26.70;53.75;95611.69;615715;229;64927;-63
2022/11/23 08:36:08;;;;;;;;;;;;;;;26.72;55.05;95614.84;608735;233;62902;-65
2022/11/23 08:38:35;;;;;;;;;;;;;;;26.72;54.89;95607.53;608415;233;67481;-67
2022/11/23 08:41:04;;;;;;;;;;;;;;;26.71;54.33;95597.89;608817;233;65619;-66
2022/11/23 08:43:33;;;;;;;;;;;;;;;26.70;53.95;95607.08;615635;230;63154;-67
2022/11/23 08:46:01;;;;;;;;;;;;;;;26.70;53.83;95608.99;608748;231;67263;-65
2022/11/23 08:48:28;;;;;;;;;;;;;;;26.69;52.61;95605.52;608467;233;66819;-65
2022/11/23 08:50:57;;;;;;;;;;;;;;;26.69;52.85;95613.61;608729;233;62859;-66
2022/11/23 08:53:24;;;;;;;;;;;;;;;26.69;53.34;95613.61;612946;230;67106;-63
2022/11/23 08:55:52;;;;;;;;;;;;;;;26.69;52.83;95610.91;607171;233;67341;-63
2022/11/23 08:58:22;;;;;;;;;;;;;;;26.69;53.17;95594.74;598514;231;65691;-66
2022/11/23 09:00:50;;;;;;;;;;;;;;;26.70;52.38;95606.30;609712;230;67175;-62
2022/11/23 09:03:17;;;;;;;;;;;;;;;26.70;51.97;95609.77;609255;233;67018;-62
2022/11/23 09:05:45;;;;;;;;;;;;;;;26.73;53.31;95613.70;609304;233;65071;-64
2022/11/23 09:08:14;;;;;;;;;;;;;;;26.74;54.82;95607.98;609346;233;67399;-63
2022/11/23 09:10:41;;;;;;;;;;;;;;;26.73;53.24;95601.00;609302;230;64954;-64
2022/11/23 09:13:09;;;;;;;;;;;;;;;26.72;54.55;95602.14;607564;230;62955;-64
2022/11/23 09:15:36;;;;;;;;;;;;;;;26.71;54.20;95600.58;612621;230;65605;-64
2022/11/23 09:18:04;;;;;;;;;;;;;;;26.72;54.43;95595.97;607207;233;67037;-67
2022/11/23 09:20:31;;;;;;;;;;;;;;;26.71;53.62;95597.89;607264;233;65066;-64
2022/11/23 09:22:59;;;;;;;;;;;;;;;26.71;53.19;95597.89;607241;233;67433;-64
2022/11/23 09:25:26;;;;;;;;;;;;;;;26.72;53.59;95591.36;607201;233;67073;-64
2022/11/23 09:28:00;;;;;;;;;;;;;;;26.73;52.98;95584.05;607261;233;65117;-64
2022/11/23 09:30:27;;;;;;;;;;;;;;;26.71;54.22;95579.02;607264;233;65085;-65
2022/11/23 09:32:56;;;;;;;;;;;;;;;26.71;54.85;95581.72;607148;233;65056;-66
2022/11/23 09:35:24;;;;;;;;;;;;;;;26.73;54.74;95573.27;607152;233;65065;-64
2022/11/23 09:37:55;;;;;;;;;;;;;;;26.72;54.24;95574.41;607202;233;67188;-64
2022/11/23 09:40:24;;;;;;;;;;;;;;;26.72;56.07;95567.11;607136;233;67163;-67
2022/11/23 09:42:53;;;;;;;;;;;;;;;26.71;53.99;95552.08;607194;233;64966;-66
2022/11/23 09:45:25;;;;;;;;;;;;;;;26.71;54.24;95552.08;607054;233;67095;-61
2022/11/23 09:48:12;;;;;;;;;;;;;;;26.72;54.97;95556.33;607152;233;64794;-64
2022/11/23 09:50:52;;;;;;;;;;;;;;;26.72;53.69;95553.62;607170;233;63093;-68
2022/11/23 09:53:23;;;;;;;;;;;;;;;26.72;54.67;95550.16;607162;233;67224;-68
2022/11/23 09:55:52;;;;;;;;;;;;;;;26.73;55.52;95551.72;607162;233;67001;-66
2022/11/23 09:58:21;;;;;;;;;;;;;;;26.73;55.37;95544.41;607142;233;65868;-67
2022/11/23 10:01:02;;;;;;;;;;;;;;;26.73;54.91;95538.24;607151;233;67188;-68
2022/11/23 10:03:31;;;;;;;;;;;;;;;26.73;54.06;95536.33;607203;233;66697;-66
2022/11/23 10:06:06;;;;;;;;;;;;;;;26.73;55.13;95540.94;607187;233;70663;-66
2022/11/23 10:08:38;;;;;;;;;;;;;;;26.72;46.79;95534.77;606850;233;65023;-68
2022/11/23 10:11:22;;;;;;;;;;;;;;;26.78;52.91;95527.22;607057;233;67385;-67
2022/11/23 10:14:07;;;;;;;;;;;;;;;26.79;53.56;95528.77;607189;233;63187;-71
2022/11/23 10:16:40;;;;;;;;;;;;;;;26.81;52.93;95528.44;607122;233;67308;-72
2022/11/23 10:19:18;;;;;;;;;;;;;;;26.83;52.84;95515.41;606400;233;67118;-71
2022/11/23 10:21:56;;;;;;;;;;;;;;;26.85;53.84;95515.86;606992;233;62923;-70
2022/11/23 10:24:27;;;;;;;;;;;;;;;26.85;51.10;95518.55;601867;233;67274;-70
2022/11/23 10:26:54;;;;;;;;;;;;;;;26.86;54.27;95512.80;607221;233;64996;-71
2022/11/23 10:29:29;;;;;;;;;;;;;;;26.88;53.89;95509.77;607147;232;63106;-71
2022/11/23 10:31:57;;;;;;;;;;;;;;;26.89;53.99;95511.33;607138;233;66686;-71
2022/11/23 10:34:43;;;;;;;;;;;;;;;26.89;53.75;95516.72;607133;233;66920;-70
2022/11/23 10:37:15;;;;;;;;;;;;;;;26.90;50.97;95510.19;607138;233;65315;-71
2022/11/23 10:39:43;;;;;;;;;;;;;;;26.95;52.36;95509.94;607187;233;67202;-70
2022/11/23 10:42:18;;;;;;;;;;;;;;;26.95;54.05;95505.33;607155;233;66831;-72
2022/11/23 10:44:47;;;;;;;;;;;;;;;26.98;51.71;95503.86;606779;233;65011;-71
2022/11/23 10:47:16;;;;;;;;;;;;;;;27.00;49.84;95496.98;607202;233;66956;-72
2022/11/23 10:49:44;;;;;;;;;;;;;;;27.01;52.12;95509.36;606450;233;64639;-71
2022/11/23 10:52:28;;;;;;;;;;;;;;;27.02;51.66;95502.05;606492;233;63002;-71
2022/11/23 10:55:00;;;;;;;;;;;;;;;27.05;51.04;95508.66;607238;233;64924;-70
2022/11/23 10:57:29;;;;;;;;;;;;;;;27.07;49.53;95503.72;607132;233;64789;-70
2022/11/23 10:59:59;;;;;;;;;;;;;;;27.09;48.97;95496.03;607182;233;65130;-71
2022/11/23 11:02:27;;;;;;;;;;;;;;;27.09;50.35;95507.62;606207;233;67286;-71
2022/11/23 11:05:12;;;;;;;;;;;;;;;27.10;54.17;95506.48;607126;233;67201;-71
2022/11/23 11:07:40;;;;;;;;;;;;;;;27.11;53.11;95510.74;607175;233;65024;-71
2022/11/23 11:10:09;;;;;;;;;;;;;;;27.08;45.13;95508.74;607204;233;64985;-70
2022/11/23 11:12:38;;;;;;;;;;;;;;;27.08;46.57;95508.74;606198;233;64799;-71
2022/11/23 11:15:13;;;;;;;;;;;;;;;27.07;48.63;95504.49;606690;233;63823;-71
2022/11/23 11:17:41;;;;;;;;;;;;;;;27.06;53.53;95513.69;607191;233;67231;-72
2022/11/23 11:20:26;;;;;;;;;;;;;;;27.04;53.08;95517.86;607108;233;64457;-70
2022/11/23 11:22:54;;;;;;;;;;;;;;;27.02;52.21;95512.83;591502;238;65080;-70
2022/11/23 11:25:32;;;;;;;;;;;;;;;27.03;54.99;95510.91;602203;233;67257;-70
2022/11/23 11:28:01;;;;;;;;;;;;;;;27.01;52.39;95505.88;607080;233;65248;-70
2022/11/23 11:30:30;;;;;;;;;;;;;;;27.01;50.31;95506.66;607179;233;63050;-71
2022/11/23 11:33:05;;;;;;;;;;;;;;;27.02;52.31;95499.35;606052;233;64955;-70
2022/11/23 11:35:34;;;;;;;;;;;;;;;27.06;52.85;95499.44;604299;234;67020;-72
2022/11/23 11:38:03;;;;;;;;;;;;;;;27.07;50.94;95495.63;604668;234;63006;-63
2022/11/23 11:40:36;;;;;;;;;;;;;;;27.05;54.71;95495.18;604601;234;65011;-63
2022/11/23 11:43:11;;;;;;;;;;;;;;;27.06;55.97;95488.65;604734;234;67150;-64
2022/11/23 11:45:41;;;;;;;;;;;;;;;27.07;55.34;95480.23;604741;234;63832;-63
2022/11/23 11:48:15;;;;;;;;;;;;;;;27.07;56.02;95488.31;604307;234;66963;-64
2022/11/23 11:50:45;;;;;;;;;;;;;;;27.08;55.17;95489.87;604699;232;64876;-64
2022/11/23 11:53:14;;;;;;;;;;;;;;;27.07;55.05;95492.93;601796;234;62948;-64
2022/11/23 11:55:55;;;;;;;;;;;;;;;27.08;55.89;95497.95;604668;234;65168;-64
2022/11/23 11:58:24;;;;;;;;;;;;;;;27.08;56.96;95497.95;604655;234;65292;-63
2022/11/23 12:01:06;;;;;;;;;;;;;;;27.10;54.74;95503.80;604712;234;63019;-63
2022/11/23 12:03:35;;;;;;;;;;;;;;;27.12;51.53;95503.43;589508;234;67104;-63
2022/11/23 12:06:04;;;;;;;;;;;;;;;27.12;54.99;95508.82;603604;234;67257;-63
2022/11/23 12:08:45;;;;;;;;;;;;;;;27.12;53.88;95500.73;604721;234;66054;-64
2022/11/23 12:11:13;;;;;;;;;;;;;;;27.13;54.30;95503.09;604601;234;64968;-64
2022/11/23 12:13:41;;;;;;;;;;;;;;;27.13;52.98;95513.10;597137;237;64974;-64
2022/11/23 12:16:27;;;;;;;;;;;;;;;27.14;53.85;95507.34;604642;234;64879;-64
2022/11/23 12:18:56;;;;;;;;;;;;;;;27.14;54.70;95507.34;597144;237;67339;-64
2022/11/23 12:21:40;;;;;;;;;;;;;;;27.16;51.25;95510.52;604738;234;67015;-64
2022/11/23 12:24:26;;;;;;;;;;;;;;;27.17;51.67;95501.31;604344;234;66526;-67
2022/11/23 12:26:58;;;;;;;;;;;;;;;27.18;55.00;95515.58;597209;237;67196;-63
2022/11/23 12:29:36;;;;;;;;;;;;;;;27.16;55.43;95510.52;597021;237;67114;-64
2022/11/23 12:32:08;;;;;;;;;;;;;;;27.19;50.96;95514.44;596883;237;65379;-64
2022/11/23 12:34:43;;;;;;;;;;;;;;;27.21;52.77;95509.48;610519;229;65256;-65
2022/11/23 12:37:17;;;;;;;;;;;;;;;27.22;54.15;95508.34;611130;229;66947;-64
2022/11/23 12:39:48;;;;;;;;;;;;;;;27.21;55.69;95512.18;609465;232;62900;-64
2022/11/23 12:42:23;;;;;;;;;;;;;;;27.21;55.63;95512.18;609837;232;67154;-64
2022/11/23 12:44:59;;;;;;;;;;;;;;;27.21;55.77;95518.35;609719;232;67277;-64
2022/11/23 12:47:44;;;;;;;;;;;;;;;27.22;53.46;95519.13;609819;232;63002;-64
2022/11/23 12:50:28;;;;;;;;;;;;;;;27.22;56.51;95519.13;609594;232;67209;-63
2022/11/23 12:53:00;;;;;;;;;;;;;;;27.21;56.68;95515.66;611049;232;67068;-64
2022/11/23 12:55:29;;;;;;;;;;;;;;;27.21;55.66;95510.27;611920;232;66091;-67
2022/11/23 12:57:59;;;;;;;;;;;;;;;27.20;55.35;95508.70;611805;232;67162;-63
2022/11/23 13:00:28;;;;;;;;;;;;;;;27.21;55.80;95512.95;606188;230;67049;-64